sensor_id;sensor_type;location;lat;lon;timestamp;P1;durP1;ratioP1;P2;durP2;ratioP2
52342;SDS011;38277;51.972;4.624;2023-02-12T00:00:03;15.4;;;7.6;;
52342;SDS011;38277;51.972;4.624;2023-02-12T00:09:10;11.0;;;6.3;;
52342;SDS011;38277;51.972;4.624;2023-02-12T00:13:32;12.1;;;6.2;;
52342;SDS011;38277;51.972;4.624;2023-02-12T00:18:09;16.7;;;7.4;;
52342;SDS011;38277;51.972;4.624;2023-02-12T00:31:37;11.9;;;6.5;;
52342;SDS011;38277;51.972;4.624;2023-02-12T00:36:02;15.1;;;7.3;;
52342;SDS011;38277;51.972;4.624;2023-02-12T00:44:45;12.6;;;6.9;;
52342;SDS011;38277;51.972;4.624;2023-02-12T00:53:46;13.6;;;7.4;;
52342;SDS011;38277;51.972;4.624;2023-02-12T00:58:22;15.3;;;8.8;;
52342;SDS011;38277;51.972;4.624;2023-02-12T01:07:57;21.9;;;11.4;;
52342;SDS011;38277;51.972;4.624;2023-02-12T01:12:11;21.2;;;11.0;;
52342;SDS011;38277;51.972;4.624;2023-02-12T01:16:19;17.9;;;9.7;;
52342;SDS011;38277;51.972;4.624;2023-02-12T01:20:56;18.9;;;10.2;;
52342;SDS011;38277;51.972;4.624;2023-02-12T01:25:23;20.3;;;10.4;;
52342;SDS011;38277;51.972;4.624;2023-02-12T01:30:06;21.0;;;11.1;;
52342;SDS011;38277;51.972;4.624;2023-02-12T01:34:59;19.0;;;10.6;;
52342;SDS011;38277;51.972;4.624;2023-02-12T01:43:42;19.9;;;9.9;;
52342;SDS011;38277;51.972;4.624;2023-02-12T01:47:53;18.7;;;10.8;;
52342;SDS011;38277;51.972;4.624;2023-02-12T02:01:34;18.0;;;9.5;;
52342;SDS011;38277;51.972;4.624;2023-02-12T02:06:12;18.9;;;10.6;;
52342;SDS011;38277;51.972;4.624;2023-02-12T02:10:23;18.0;;;10.3;;
52342;SDS011;38277;51.972;4.624;2023-02-12T02:26:04;17.0;;;9.4;;
52342;SDS011;38277;51.972;4.624;2023-02-12T02:31:31;15.6;;;8.6;;
52342;SDS011;38277;51.972;4.624;2023-02-12T02:38:50;13.4;;;7.7;;
52342;SDS011;38277;51.972;4.624;2023-02-12T02:42:02;14.5;;;8.0;;
52342;SDS011;38277;51.972;4.624;2023-02-12T02:46:57;12.5;;;7.7;;
52342;SDS011;38277;51.972;4.624;2023-02-12T02:50:46;13.9;;;8.7;;
52342;SDS011;38277;51.972;4.624;2023-02-12T03:04:43;16.4;;;8.6;;
52342;SDS011;38277;51.972;4.624;2023-02-12T03:09:02;13.6;;;7.7;;
52342;SDS011;38277;51.972;4.624;2023-02-12T03:13:45;14.5;;;8.1;;
52342;SDS011;38277;51.972;4.624;2023-02-12T03:18:10;11.9;;;6.8;;
52342;SDS011;38277;51.972;4.624;2023-02-12T03:22:42;14.4;;;7.5;;
52342;SDS011;38277;51.972;4.624;2023-02-12T03:27:01;13.9;;;7.8;;
52342;SDS011;38277;51.972;4.624;2023-02-12T03:41:12;19.7;;;9.2;;
52342;SDS011;38277;51.972;4.624;2023-02-12T03:45:36;13.7;;;8.1;;
52342;SDS011;38277;51.972;4.624;2023-02-12T03:49:33;12.0;;;7.6;;
52342;SDS011;38277;51.972;4.624;2023-02-12T04:07:29;13.5;;;7.9;;
52342;SDS011;38277;51.972;4.624;2023-02-12T04:12:01;14.0;;;8.2;;
52342;SDS011;38277;51.972;4.624;2023-02-12T04:21:12;12.0;;;7.0;;
52342;SDS011;38277;51.972;4.624;2023-02-12T04:25:52;12.1;;;6.4;;
52342;SDS011;38277;51.972;4.624;2023-02-12T04:30:03;13.3;;;7.5;;
52342;SDS011;38277;51.972;4.624;2023-02-12T04:35:02;12.8;;;7.4;;
52342;SDS011;38277;51.972;4.624;2023-02-12T04:44:11;13.8;;;8.1;;
52342;SDS011;38277;51.972;4.624;2023-02-12T04:47:56;11.8;;;7.3;;
52342;SDS011;38277;51.972;4.624;2023-02-12T04:53:06;12.9;;;6.9;;
52342;SDS011;38277;51.972;4.624;2023-02-12T05:06:08;14.2;;;8.3;;
52342;SDS011;38277;51.972;4.624;2023-02-12T05:11:03;13.3;;;8.0;;
52342;SDS011;38277;51.972;4.624;2023-02-12T05:15:26;14.4;;;8.7;;
52342;SDS011;38277;51.972;4.624;2023-02-12T05:19:25;14.6;;;8.5;;
52342;SDS011;38277;51.972;4.624;2023-02-12T05:24:06;13.7;;;7.5;;
52342;SDS011;38277;51.972;4.624;2023-02-12T05:28:35;14.7;;;8.5;;
52342;SDS011;38277;51.972;4.624;2023-02-12T05:33:24;13.1;;;8.1;;
52342;SDS011;38277;51.972;4.624;2023-02-12T05:37:43;12.9;;;7.7;;
52342;SDS011;38277;51.972;4.624;2023-02-12T05:41:48;13.9;;;7.8;;
52342;SDS011;38277;51.972;4.624;2023-02-12T05:46:40;14.7;;;8.1;;
52342;SDS011;38277;51.972;4.624;2023-02-12T05:51:25;13.4;;;8.6;;
52342;SDS011;38277;51.972;4.624;2023-02-12T05:55:44;15.0;;;8.9;;
52342;SDS011;38277;51.972;4.624;2023-02-12T05:59:58;13.7;;;7.7;;
52342;SDS011;38277;51.972;4.624;2023-02-12T06:04:27;13.8;;;7.9;;
52342;SDS011;38277;51.972;4.624;2023-02-12T06:09:12;13.3;;;7.8;;
52342;SDS011;38277;51.972;4.624;2023-02-12T06:13:35;14.1;;;8.4;;
52342;SDS011;38277;51.972;4.624;2023-02-12T06:18:11;11.5;;;6.8;;
52342;SDS011;38277;51.972;4.624;2023-02-12T06:22:35;17.6;;;9.5;;
52342;SDS011;38277;51.972;4.624;2023-02-12T06:27:12;15.3;;;8.8;;
52342;SDS011;38277;51.972;4.624;2023-02-12T06:31:41;14.5;;;8.5;;
52342;SDS011;38277;51.972;4.624;2023-02-12T06:36:02;13.4;;;7.5;;
52342;SDS011;38277;51.972;4.624;2023-02-12T06:40:32;12.5;;;7.4;;
52342;SDS011;38277;51.972;4.624;2023-02-12T06:49:35;11.1;;;7.0;;
52342;SDS011;38277;51.972;4.624;2023-02-12T06:54:12;12.0;;;7.4;;
52342;SDS011;38277;51.972;4.624;2023-02-12T06:58:18;13.3;;;7.1;;
52342;SDS011;38277;51.972;4.624;2023-02-12T07:03:09;12.5;;;6.9;;
52342;SDS011;38277;51.972;4.624;2023-02-12T07:07:33;11.6;;;7.3;;
52342;SDS011;38277;51.972;4.624;2023-02-12T07:11:46;13.1;;;7.4;;
52342;SDS011;38277;51.972;4.624;2023-02-12T07:16:19;14.0;;;8.3;;
52342;SDS011;38277;51.972;4.624;2023-02-12T07:25:40;15.5;;;9.3;;
52342;SDS011;38277;51.972;4.624;2023-02-12T07:30:10;16.5;;;8.8;;
52342;SDS011;38277;51.972;4.624;2023-02-12T07:34:35;13.0;;;7.9;;
52342;SDS011;38277;51.972;4.624;2023-02-12T07:39:04;11.2;;;7.3;;
52342;SDS011;38277;51.972;4.624;2023-02-12T07:43:52;13.0;;;7.4;;
52342;SDS011;38277;51.972;4.624;2023-02-12T07:47:52;13.2;;;7.1;;
52342;SDS011;38277;51.972;4.624;2023-02-12T07:52:40;11.4;;;7.1;;
52342;SDS011;38277;51.972;4.624;2023-02-12T07:57:12;12.5;;;7.6;;
52342;SDS011;38277;51.972;4.624;2023-02-12T08:01:48;14.1;;;7.6;;
52342;SDS011;38277;51.972;4.624;2023-02-12T08:05:52;14.1;;;6.9;;
52342;SDS011;38277;51.972;4.624;2023-02-12T08:10:23;12.1;;;7.0;;
52342;SDS011;38277;51.972;4.624;2023-02-12T08:14:44;11.8;;;6.6;;
52342;SDS011;38277;51.972;4.624;2023-02-12T08:19:42;14.3;;;8.5;;
52342;SDS011;38277;51.972;4.624;2023-02-12T08:24:01;12.2;;;7.0;;
52342;SDS011;38277;51.972;4.624;2023-02-12T08:28:16;13.1;;;6.8;;
52342;SDS011;38277;51.972;4.624;2023-02-12T08:33:08;12.8;;;6.8;;
52342;SDS011;38277;51.972;4.624;2023-02-12T08:37:34;11.5;;;7.1;;
52342;SDS011;38277;51.972;4.624;2023-02-12T08:41:54;14.6;;;8.2;;
52342;SDS011;38277;51.972;4.624;2023-02-12T08:51:10;12.9;;;7.0;;
52342;SDS011;38277;51.972;4.624;2023-02-12T08:55:46;12.2;;;7.2;;
52342;SDS011;38277;51.972;4.624;2023-02-12T08:59:45;13.7;;;8.6;;
52342;SDS011;38277;51.972;4.624;2023-02-12T09:04:34;10.8;;;6.5;;
52342;SDS011;38277;51.972;4.624;2023-02-12T09:08:54;11.4;;;7.0;;
52342;SDS011;38277;51.972;4.624;2023-02-12T09:13:28;9.7;;;6.2;;
52342;SDS011;38277;51.972;4.624;2023-02-12T09:17:59;11.5;;;6.6;;
52342;SDS011;38277;51.972;4.624;2023-02-12T09:27:12;12.3;;;6.9;;
52342;SDS011;38277;51.972;4.624;2023-02-12T09:31:25;14.2;;;7.4;;
52342;SDS011;38277;51.972;4.624;2023-02-12T09:36:27;15.0;;;9.0;;
52342;SDS011;38277;51.972;4.624;2023-02-12T09:40:30;12.5;;;7.8;;
52342;SDS011;38277;51.972;4.624;2023-02-12T09:45:31;13.5;;;8.3;;
52342;SDS011;38277;51.972;4.624;2023-02-12T09:50:17;12.6;;;7.6;;
52342;SDS011;38277;51.972;4.624;2023-02-12T09:54:14;13.8;;;8.1;;
52342;SDS011;38277;51.972;4.624;2023-02-12T09:58:50;15.3;;;9.1;;
52342;SDS011;38277;51.972;4.624;2023-02-12T10:03:17;14.3;;;7.7;;
52342;SDS011;38277;51.972;4.624;2023-02-12T10:08:21;15.2;;;7.9;;
52342;SDS011;38277;51.972;4.624;2023-02-12T10:12:59;14.1;;;8.6;;
52342;SDS011;38277;51.972;4.624;2023-02-12T10:17:42;12.7;;;7.8;;
52342;SDS011;38277;51.972;4.624;2023-02-12T10:26:46;13.6;;;8.1;;
52342;SDS011;38277;51.972;4.624;2023-02-12T10:30:01;13.6;;;7.9;;
52342;SDS011;38277;51.972;4.624;2023-02-12T10:34:36;12.1;;;6.7;;
52342;SDS011;38277;51.972;4.624;2023-02-12T10:38:46;12.7;;;7.2;;
52342;SDS011;38277;51.972;4.624;2023-02-12T10:43:41;15.4;;;8.1;;
52342;SDS011;38277;51.972;4.624;2023-02-12T10:48:14;14.2;;;7.5;;
52342;SDS011;38277;51.972;4.624;2023-02-12T10:52:50;12.5;;;7.7;;
52342;SDS011;38277;51.972;4.624;2023-02-12T11:01:32;14.7;;;7.9;;
52342;SDS011;38277;51.972;4.624;2023-02-12T11:05:56;18.3;;;8.1;;
52342;SDS011;38277;51.972;4.624;2023-02-12T11:14:48;13.5;;;7.7;;
52342;SDS011;38277;51.972;4.624;2023-02-12T11:19:31;14.4;;;8.3;;
52342;SDS011;38277;51.972;4.624;2023-02-12T11:24:29;16.7;;;8.5;;
52342;SDS011;38277;51.972;4.624;2023-02-12T11:28:52;15.3;;;8.3;;
52342;SDS011;38277;51.972;4.624;2023-02-12T11:33:32;15.8;;;8.2;;
52342;SDS011;38277;51.972;4.624;2023-02-12T11:37:42;13.2;;;8.2;;
52342;SDS011;38277;51.972;4.624;2023-02-12T11:42:36;16.3;;;8.7;;
52342;SDS011;38277;51.972;4.624;2023-02-12T11:46:35;15.9;;;8.8;;
52342;SDS011;38277;51.972;4.624;2023-02-12T11:51:17;15.5;;;8.3;;
52342;SDS011;38277;51.972;4.624;2023-02-12T11:55:23;14.4;;;7.9;;
52342;SDS011;38277;51.972;4.624;2023-02-12T12:00:26;13.9;;;8.0;;
52342;SDS011;38277;51.972;4.624;2023-02-12T12:04:18;18.9;;;8.9;;
52342;SDS011;38277;51.972;4.624;2023-02-12T12:09:14;16.9;;;8.7;;
52342;SDS011;38277;51.972;4.624;2023-02-12T12:13:46;15.4;;;8.6;;
52342;SDS011;38277;51.972;4.624;2023-02-12T12:18:20;15.4;;;8.1;;
52342;SDS011;38277;51.972;4.624;2023-02-12T12:22:52;13.5;;;7.7;;
52342;SDS011;38277;51.972;4.624;2023-02-12T12:31:43;12.7;;;6.4;;
52342;SDS011;38277;51.972;4.624;2023-02-12T12:36:54;10.6;;;6.2;;
52342;SDS011;38277;51.972;4.624;2023-02-12T12:42:49;11.1;;;6.3;;
52342;SDS011;38277;51.972;4.624;2023-02-12T12:52:53;11.0;;;5.7;;
52342;SDS011;38277;51.972;4.624;2023-02-12T12:57:52;13.3;;;6.6;;
52342;SDS011;38277;51.972;4.624;2023-02-12T13:04:54;13.8;;;6.5;;
52342;SDS011;38277;51.972;4.624;2023-02-12T13:14:05;12.6;;;5.8;;
52342;SDS011;38277;51.972;4.624;2023-02-12T13:18:08;11.0;;;5.9;;
52342;SDS011;38277;51.972;4.624;2023-02-12T13:22:51;12.1;;;6.2;;
52342;SDS011;38277;51.972;4.624;2023-02-12T13:27:17;14.1;;;6.5;;
52342;SDS011;38277;51.972;4.624;2023-02-12T13:29:51;12.0;;;6.4;;
52342;SDS011;38277;51.972;4.624;2023-02-12T13:32:15;13.6;;;7.0;;
52342;SDS011;38277;51.972;4.624;2023-02-12T13:34:43;12.0;;;6.6;;
52342;SDS011;38277;51.972;4.624;2023-02-12T13:38:52;14.8;;;7.7;;
52342;SDS011;38277;51.972;4.624;2023-02-12T13:43:52;13.5;;;7.7;;
52342;SDS011;38277;51.972;4.624;2023-02-12T13:48:38;15.3;;;7.9;;
52342;SDS011;38277;51.972;4.624;2023-02-12T13:52:40;15.0;;;8.1;;
52342;SDS011;38277;51.972;4.624;2023-02-12T13:57:14;13.4;;;8.5;;
52342;SDS011;38277;51.972;4.624;2023-02-12T14:05:49;15.6;;;9.1;;
52342;SDS011;38277;51.972;4.624;2023-02-12T14:10:21;15.9;;;9.1;;
52342;SDS011;38277;51.972;4.624;2023-02-12T14:14:50;15.7;;;9.3;;
52342;SDS011;38277;51.972;4.624;2023-02-12T14:20:20;18.5;;;9.8;;
52342;SDS011;38277;51.972;4.624;2023-02-12T14:23:52;15.8;;;9.2;;
52342;SDS011;38277;51.972;4.624;2023-02-12T14:28:55;15.9;;;9.1;;
52342;SDS011;38277;51.972;4.624;2023-02-12T14:33:26;17.5;;;10.0;;
52342;SDS011;38277;51.972;4.624;2023-02-12T14:42:55;21.2;;;11.1;;
52342;SDS011;38277;51.972;4.624;2023-02-12T14:46:51;20.1;;;11.3;;
52342;SDS011;38277;51.972;4.624;2023-02-12T14:55:41;19.2;;;10.7;;
52342;SDS011;38277;51.972;4.624;2023-02-12T15:00:35;19.9;;;11.0;;
52342;SDS011;38277;51.972;4.624;2023-02-12T15:04:37;18.6;;;10.8;;
52342;SDS011;38277;51.972;4.624;2023-02-12T15:09:15;20.6;;;10.4;;
52342;SDS011;38277;51.972;4.624;2023-02-12T15:13:32;21.1;;;11.8;;
52342;SDS011;38277;51.972;4.624;2023-02-12T15:17:55;22.3;;;13.0;;
52342;SDS011;38277;51.972;4.624;2023-02-12T15:22:38;23.9;;;13.8;;
52342;SDS011;38277;51.972;4.624;2023-02-12T15:26:58;23.8;;;13.6;;
52342;SDS011;38277;51.972;4.624;2023-02-12T15:31:31;26.2;;;14.7;;
52342;SDS011;38277;51.972;4.624;2023-02-12T15:36:14;24.2;;;14.3;;
52342;SDS011;38277;51.972;4.624;2023-02-12T15:40:27;23.1;;;13.7;;
52342;SDS011;38277;51.972;4.624;2023-02-12T15:44:45;24.0;;;12.9;;
52342;SDS011;38277;51.972;4.624;2023-02-12T15:49:39;19.4;;;11.1;;
52342;SDS011;38277;51.972;4.624;2023-02-12T15:58:36;19.4;;;11.3;;
52342;SDS011;38277;51.972;4.624;2023-02-12T16:03:16;21.1;;;11.8;;
52342;SDS011;38277;51.972;4.624;2023-02-12T16:07:23;21.6;;;11.7;;
52342;SDS011;38277;51.972;4.624;2023-02-12T16:11:47;28.2;;;15.4;;
52342;SDS011;38277;51.972;4.624;2023-02-12T16:16:17;29.6;;;16.2;;
52342;SDS011;38277;51.972;4.624;2023-02-12T16:21:00;27.5;;;15.3;;
52342;SDS011;38277;51.972;4.624;2023-02-12T16:29:57;26.6;;;16.0;;
52342;SDS011;38277;51.972;4.624;2023-02-12T16:34:38;24.3;;;14.3;;
52342;SDS011;38277;51.972;4.624;2023-02-12T16:39:26;21.8;;;12.8;;
52342;SDS011;38277;51.972;4.624;2023-02-12T16:43:33;22.1;;;14.1;;
52342;SDS011;38277;51.972;4.624;2023-02-12T16:48:29;26.0;;;14.7;;
52342;SDS011;38277;51.972;4.624;2023-02-12T16:52:40;23.1;;;13.3;;
52342;SDS011;38277;51.972;4.624;2023-02-12T16:56:55;24.3;;;13.2;;
52342;SDS011;38277;51.972;4.624;2023-02-12T17:01:38;25.1;;;15.0;;
52342;SDS011;38277;51.972;4.624;2023-02-12T17:06:28;24.0;;;13.0;;
52342;SDS011;38277;51.972;4.624;2023-02-12T17:10:34;23.3;;;13.7;;
52342;SDS011;38277;51.972;4.624;2023-02-12T17:15:28;23.4;;;13.4;;
52342;SDS011;38277;51.972;4.624;2023-02-12T17:19:42;20.1;;;11.8;;
52342;SDS011;38277;51.972;4.624;2023-02-12T17:28:20;24.8;;;13.6;;
52342;SDS011;38277;51.972;4.624;2023-02-12T17:32:45;26.0;;;14.1;;
52342;SDS011;38277;51.972;4.624;2023-02-12T17:37:33;26.2;;;15.0;;
52342;SDS011;38277;51.972;4.624;2023-02-12T17:42:12;24.0;;;13.4;;
52342;SDS011;38277;51.972;4.624;2023-02-12T17:50:44;24.9;;;14.5;;
52342;SDS011;38277;51.972;4.624;2023-02-12T17:55:27;25.6;;;15.2;;
52342;SDS011;38277;51.972;4.624;2023-02-12T18:04:36;27.7;;;15.6;;
52342;SDS011;38277;51.972;4.624;2023-02-12T18:08:47;24.2;;;13.9;;
52342;SDS011;38277;51.972;4.624;2023-02-12T18:13:20;24.5;;;14.1;;
52342;SDS011;38277;51.972;4.624;2023-02-12T18:22:22;24.4;;;13.8;;
52342;SDS011;38277;51.972;4.624;2023-02-12T18:27:13;21.9;;;11.8;;
52342;SDS011;38277;51.972;4.624;2023-02-12T18:31:43;26.2;;;15.2;;
52342;SDS011;38277;51.972;4.624;2023-02-12T18:36:00;24.7;;;15.0;;
52342;SDS011;38277;51.972;4.624;2023-02-12T18:40:28;27.8;;;14.3;;
52342;SDS011;38277;51.972;4.624;2023-02-12T18:45:05;23.1;;;13.6;;
52342;SDS011;38277;51.972;4.624;2023-02-12T18:49:35;28.5;;;15.6;;
52342;SDS011;38277;51.972;4.624;2023-02-12T18:53:52;30.2;;;16.4;;
52342;SDS011;38277;51.972;4.624;2023-02-12T18:58:30;24.9;;;15.1;;
52342;SDS011;38277;51.972;4.624;2023-02-12T19:02:51;29.7;;;16.2;;
52342;SDS011;38277;51.972;4.624;2023-02-12T19:07:26;27.0;;;15.8;;
52342;SDS011;38277;51.972;4.624;2023-02-12T19:11:49;26.1;;;14.6;;
52342;SDS011;38277;51.972;4.624;2023-02-12T19:16:44;29.9;;;16.5;;
52342;SDS011;38277;51.972;4.624;2023-02-12T19:21:05;30.1;;;16.8;;
52342;SDS011;38277;51.972;4.624;2023-02-12T19:25:18;28.4;;;16.0;;
52342;SDS011;38277;51.972;4.624;2023-02-12T19:29:54;28.3;;;16.2;;
52342;SDS011;38277;51.972;4.624;2023-02-12T19:39:00;27.5;;;15.3;;
52342;SDS011;38277;51.972;4.624;2023-02-12T19:43:43;27.4;;;15.9;;
52342;SDS011;38277;51.972;4.624;2023-02-12T19:47:50;28.6;;;16.5;;
52342;SDS011;38277;51.972;4.624;2023-02-12T19:52:29;26.0;;;15.3;;
52342;SDS011;38277;51.972;4.624;2023-02-12T20:01:21;30.2;;;17.7;;
52342;SDS011;38277;51.972;4.624;2023-02-12T20:06:23;29.2;;;16.8;;
52342;SDS011;38277;51.972;4.624;2023-02-12T20:10:20;32.2;;;18.1;;
52342;SDS011;38277;51.972;4.624;2023-02-12T20:14:52;32.9;;;19.0;;
52342;SDS011;38277;51.972;4.624;2023-02-12T20:19:18;29.3;;;16.8;;
52342;SDS011;38277;51.972;4.624;2023-02-12T20:24:16;29.4;;;17.0;;
52342;SDS011;38277;51.972;4.624;2023-02-12T20:28:29;29.1;;;16.7;;
52342;SDS011;38277;51.972;4.624;2023-02-12T20:33:07;31.4;;;16.6;;
52342;SDS011;38277;51.972;4.624;2023-02-12T20:37:26;25.6;;;15.1;;
52342;SDS011;38277;51.972;4.624;2023-02-12T20:42:26;24.7;;;14.6;;
52342;SDS011;38277;51.972;4.624;2023-02-12T20:46:28;27.6;;;15.8;;
52342;SDS011;38277;51.972;4.624;2023-02-12T20:55:21;29.7;;;17.3;;
52342;SDS011;38277;51.972;4.624;2023-02-12T20:59:50;30.4;;;17.5;;
52342;SDS011;38277;51.972;4.624;2023-02-12T21:04:41;31.3;;;17.7;;
52342;SDS011;38277;51.972;4.624;2023-02-12T21:13:34;30.2;;;18.2;;
52342;SDS011;38277;51.972;4.624;2023-02-12T21:18:08;34.0;;;17.1;;
52342;SDS011;38277;51.972;4.624;2023-02-12T21:35:57;32.5;;;18.5;;
52342;SDS011;38277;51.972;4.624;2023-02-12T21:40:22;30.1;;;17.0;;
52342;SDS011;38277;51.972;4.624;2023-02-12T21:49:15;28.6;;;16.1;;
52342;SDS011;38277;51.972;4.624;2023-02-12T21:53:50;33.3;;;17.8;;
52342;SDS011;38277;51.972;4.624;2023-02-12T21:58:27;30.5;;;17.2;;
52342;SDS011;38277;51.972;4.624;2023-02-12T22:03:04;32.6;;;18.7;;
52342;SDS011;38277;51.972;4.624;2023-02-12T22:07:33;28.4;;;16.7;;
52342;SDS011;38277;51.972;4.624;2023-02-12T22:11:49;28.8;;;16.9;;
52342;SDS011;38277;51.972;4.624;2023-02-12T22:16:48;28.9;;;16.8;;
52342;SDS011;38277;51.972;4.624;2023-02-12T22:21:34;27.9;;;15.8;;
52342;SDS011;38277;51.972;4.624;2023-02-12T22:25:31;28.0;;;15.1;;
52342;SDS011;38277;51.972;4.624;2023-02-12T22:29:48;30.4;;;17.3;;
52342;SDS011;38277;51.972;4.624;2023-02-12T22:34:18;30.4;;;16.5;;
52342;SDS011;38277;51.972;4.624;2023-02-12T22:38:57;31.1;;;18.0;;
52342;SDS011;38277;51.972;4.624;2023-02-12T22:43:39;29.2;;;16.4;;
52342;SDS011;38277;51.972;4.624;2023-02-12T22:48:08;29.1;;;15.9;;
52342;SDS011;38277;51.972;4.624;2023-02-12T22:52:15;26.8;;;15.3;;
52342;SDS011;38277;51.972;4.624;2023-02-12T22:56:51;28.1;;;15.9;;
52342;SDS011;38277;51.972;4.624;2023-02-12T23:01:45;27.5;;;15.1;;
52342;SDS011;38277;51.972;4.624;2023-02-12T23:06:09;31.7;;;17.9;;
52342;SDS011;38277;51.972;4.624;2023-02-12T23:10:17;27.9;;;15.4;;
52342;SDS011;38277;51.972;4.624;2023-02-12T23:15:11;30.2;;;17.0;;
52342;SDS011;38277;51.972;4.624;2023-02-12T23:19:47;31.3;;;17.5;;
52342;SDS011;38277;51.972;4.624;2023-02-12T23:24:10;31.2;;;17.4;;
52342;SDS011;38277;51.972;4.624;2023-02-12T23:28:59;31.8;;;18.2;;
52342;SDS011;38277;51.972;4.624;2023-02-12T23:32:53;27.9;;;15.7;;
52342;SDS011;38277;51.972;4.624;2023-02-12T23:37:41;30.5;;;17.0;;
52342;SDS011;38277;51.972;4.624;2023-02-12T23:42:07;31.1;;;17.8;;
52342;SDS011;38277;51.972;4.624;2023-02-12T23:46:40;32.0;;;17.8;;
52342;SDS011;38277;51.972;4.624;2023-02-12T23:51:11;33.8;;;19.5;;
52342;SDS011;38277;51.972;4.624;2023-02-12T23:55:28;33.6;;;18.9;;
